Time;durP1;ratioP1;P1;durP2;ratioP2;P2;SDS_P1;SDS_P2;PMS_P1;PMS_P2;Temp;Humidity;BMP_temperature;BMP_pressure;BME280_temperature;BME280_humidity;BME280_pressure;Samples;Min_cycle;Max_cycle;Signal;HPM_P1;HPM_P2
2021/12/05 00:21:14;;;;;;;;;;;3.70;99.90;;;;;;4962402;28;20062;-84
2021/12/05 00:23:45;;;;;;;0.80;0.80;;;3.70;99.90;;;;;;4968000;28;19945;-84
2021/12/05 00:26:16;;;;;;;3.67;2.05;;;3.70;99.90;;;;;;4965040;28;20054;-84
2021/12/05 00:34:20;;;;;;;0.77;0.77;;;3.70;99.90;;;;;;4965406;28;20079;-84
2021/12/05 00:55:39;;;;;;;0.80;0.77;;;3.70;99.90;;;;;;4971324;28;19954;-85
2021/12/05 01:01:11;;;;;;;0.80;0.80;;;3.70;99.90;;;;;;4972659;28;20789;-85
2021/12/05 01:03:54;;;;;;;0.90;0.90;;;3.70;99.90;;;;;;4961406;28;20054;-85
2021/12/05 01:09:10;;;;;;;1.02;0.93;;;3.70;99.90;;;;;;4962599;28;20047;-84
2021/12/05 01:14:28;;;;;;;0.73;0.73;;;3.70;99.90;;;;;;4974167;28;20074;-85
2021/12/05 01:16:54;;;;;;;0.70;0.70;;;3.60;99.90;;;;;;4975640;28;20039;-85
2021/12/05 01:19:22;;;;;;;0.70;0.70;;;3.60;99.90;;;;;;4975255;28;20086;-85
2021/12/05 01:21:51;;;;;;;0.63;0.63;;;3.60;99.90;;;;;;4961858;28;20038;-85
2021/12/05 01:26:59;;;;;;;0.70;0.70;;;3.50;99.90;;;;;;4969798;28;20050;-85
2021/12/05 01:29:37;;;;;;;0.70;0.70;;;3.50;99.90;;;;;;4966607;28;20050;-84
2021/12/05 01:32:25;;;;;;;0.60;0.60;;;3.40;99.90;;;;;;4970829;28;20153;-85
2021/12/05 01:35:05;;;;;;;0.70;0.70;;;3.40;99.90;;;;;;4958351;28;20039;-85
2021/12/05 01:59:03;;;;;;;0.80;0.80;;;3.50;99.90;;;;;;4962898;28;20090;-85
2021/12/05 02:37:07;;;;;;;0.70;0.70;;;3.50;99.90;;;;;;4969789;28;20113;-85
2021/12/05 02:42:08;;;;;;;0.70;0.70;;;3.50;99.90;;;;;;4974344;28;20178;-85
2021/12/05 02:44:34;;;;;;;0.68;0.68;;;3.50;99.90;;;;;;4970058;28;20055;-85
2021/12/05 02:47:07;;;;;;;0.70;0.70;;;3.50;99.90;;;;;;4969139;28;20038;-85
2021/12/05 02:49:37;;;;;;;0.63;0.63;;;3.50;99.90;;;;;;4950203;28;20043;-85
2021/12/05 02:52:09;;;;;;;0.70;0.70;;;3.50;99.90;;;;;;4962025;28;20038;-84
2021/12/05 02:54:40;;;;;;;0.90;0.90;;;3.50;99.90;;;;;;4973088;28;20043;-85
2021/12/05 02:57:08;;;;;;;0.98;0.85;;;3.50;99.90;;;;;;4978360;28;20039;-85
2021/12/05 03:02:03;;;;;;;0.70;0.70;;;3.60;99.90;;;;;;4974197;28;20043;-86
2021/12/05 03:04:32;;;;;;;0.70;0.70;;;3.60;99.90;;;;;;4960076;28;20939;-85
2021/12/05 03:07:00;;;;;;;0.60;0.60;;;3.60;99.90;;;;;;4981665;28;20059;-85
2021/12/05 03:09:25;;;;;;;0.80;0.80;;;3.60;99.90;;;;;;4969514;28;20039;-85
2021/12/05 03:11:52;;;;;;;0.80;0.80;;;3.50;99.90;;;;;;4947177;29;20047;-85
2021/12/05 03:14:18;;;;;;;0.70;0.70;;;3.50;99.90;;;;;;4957240;28;20043;-85
2021/12/05 03:16:44;;;;;;;0.80;0.80;;;3.50;99.90;;;;;;4967761;28;20136;-85
2021/12/05 03:19:11;;;;;;;0.70;0.70;;;3.50;99.90;;;;;;4967352;28;20054;-84
2021/12/05 03:21:38;;;;;;;0.70;0.70;;;3.50;99.90;;;;;;4959720;28;20046;-85
2021/12/05 03:24:05;;;;;;;0.80;0.80;;;3.50;99.90;;;;;;4972078;28;20321;-85
2021/12/05 03:26:34;;;;;;;0.70;0.70;;;3.50;99.90;;;;;;4956715;28;20043;-85
2021/12/05 03:29:00;;;;;;;0.80;0.80;;;3.50;99.90;;;;;;4955034;28;20035;-85
2021/12/05 03:31:29;;;;;;;0.70;0.70;;;3.50;99.90;;;;;;4965282;28;20429;-85
2021/12/05 03:33:54;;;;;;;0.73;0.73;;;3.50;99.90;;;;;;4975130;28;20051;-85
2021/12/05 03:36:21;;;;;;;0.60;0.60;;;3.50;99.90;;;;;;4951198;28;20110;-85
2021/12/05 03:38:47;;;;;;;0.60;0.60;;;3.50;99.90;;;;;;4957583;28;20086;-85
2021/12/05 03:41:14;;;;;;;0.90;0.90;;;3.50;99.90;;;;;;4958142;28;20114;-85
2021/12/05 03:43:41;;;;;;;0.80;0.80;;;3.50;99.90;;;;;;4972050;28;20071;-84
2021/12/05 03:46:07;;;;;;;0.73;0.73;;;3.50;99.90;;;;;;4964822;28;20126;-85
2021/12/05 03:48:38;;;;;;;0.70;0.70;;;3.50;99.90;;;;;;4970834;28;20109;-85
2021/12/05 03:51:05;;;;;;;0.70;0.70;;;3.60;99.90;;;;;;4973655;28;20090;-84
2021/12/05 03:53:31;;;;;;;0.70;0.70;;;3.50;99.90;;;;;;4968919;28;20046;-84
2021/12/05 03:55:57;;;;;;;0.70;0.70;;;3.50;99.90;;;;;;4957770;28;20531;-84
2021/12/05 03:58:24;;;;;;;0.73;0.73;;;3.50;99.90;;;;;;4973574;28;20047;-84
2021/12/05 04:00:52;;;;;;;0.82;0.82;;;3.40;99.90;;;;;;4969874;28;20051;-84
2021/12/05 04:03:20;;;;;;;0.80;0.80;;;3.40;99.90;;;;;;4963948;28;20109;-84
2021/12/05 04:05:48;;;;;;;0.60;0.60;;;3.40;99.90;;;;;;4963446;28;20050;-85
2021/12/05 04:08:15;;;;;;;0.60;0.60;;;3.30;99.90;;;;;;4974662;28;20051;-85
2021/12/05 04:10:44;;;;;;;0.70;0.70;;;3.30;99.90;;;;;;4958910;28;20046;-85
2021/12/05 04:13:10;;;;;;;0.70;0.70;;;3.30;99.90;;;;;;4971451;28;20051;-85
2021/12/05 04:15:36;;;;;;;1.23;1.13;;;3.20;99.90;;;;;;4977548;28;20042;-85
2021/12/05 04:18:02;;;;;;;0.63;0.63;;;3.20;99.90;;;;;;4972180;28;20066;-85
2021/12/05 04:20:28;;;;;;;0.80;0.80;;;3.10;99.90;;;;;;4956628;28;20049;-85
2021/12/05 04:22:54;;;;;;;1.10;1.05;;;3.20;99.90;;;;;;4963169;28;20035;-85
2021/12/05 04:25:20;;;;;;;0.88;0.88;;;3.10;99.90;;;;;;4964529;28;20432;-85
2021/12/05 04:27:50;;;;;;;0.80;0.80;;;3.10;99.90;;;;;;4961525;28;20046;-85
2021/12/05 04:30:18;;;;;;;0.98;0.98;;;3.10;99.90;;;;;;4947651;28;20039;-85
2021/12/05 04:32:44;;;;;;;2.55;1.02;;;3.00;99.90;;;;;;4965020;28;20043;-85
2021/12/05 04:35:10;;;;;;;0.85;0.85;;;3.00;99.90;;;;;;4962115;28;20089;-84
2021/12/05 04:37:36;;;;;;;0.80;0.80;;;3.00;99.90;;;;;;4975793;28;20035;-85
2021/12/05 04:40:04;;;;;;;0.60;0.60;;;3.00;99.90;;;;;;4960594;28;20030;-85
2021/12/05 04:42:29;;;;;;;0.70;0.70;;;2.90;99.90;;;;;;4967990;28;20105;-85
2021/12/05 04:44:55;;;;;;;1.33;1.23;;;3.00;99.90;;;;;;4962539;28;20050;-85
2021/12/05 04:47:21;;;;;;;0.95;0.95;;;2.90;99.90;;;;;;4959771;28;20411;-85
2021/12/05 04:49:47;;;;;;;0.70;0.70;;;3.00;99.90;;;;;;4971558;28;20728;-85
2021/12/05 04:52:13;;;;;;;0.80;0.80;;;2.90;99.90;;;;;;4966091;28;20154;-85
2021/12/05 04:54:39;;;;;;;0.70;0.70;;;2.90;99.90;;;;;;4971571;28;20399;-85
2021/12/05 04:57:05;;;;;;;0.93;0.93;;;2.90;99.90;;;;;;4964363;28;20106;-86
2021/12/05 04:59:35;;;;;;;0.70;0.70;;;2.90;99.90;;;;;;4967152;28;20085;-85
2021/12/05 05:02:03;;;;;;;1.35;1.25;;;2.90;99.90;;;;;;4977859;28;20106;-85
2021/12/05 05:04:29;;;;;;;0.80;0.80;;;2.90;99.90;;;;;;4975634;28;20107;-86
2021/12/05 05:07:02;;;;;;;0.70;0.70;;;2.90;99.90;;;;;;4966662;28;20043;-85
2021/12/05 05:09:28;;;;;;;1.40;1.30;;;2.90;99.90;;;;;;4951377;29;20065;-85
2021/12/05 05:11:54;;;;;;;1.40;1.30;;;2.90;99.90;;;;;;4955521;28;20314;-85
2021/12/05 05:14:20;;;;;;;0.68;0.68;;;2.90;99.90;;;;;;4950171;28;20085;-85
2021/12/05 05:16:48;;;;;;;0.80;0.80;;;3.00;99.90;;;;;;4969211;28;20043;-85
2021/12/05 05:19:16;;;;;;;0.75;0.75;;;2.90;99.90;;;;;;4954738;28;20043;-85
2021/12/05 05:21:58;;;;;;;0.80;0.80;;;3.00;99.90;;;;;;4975390;28;20125;-85
2021/12/05 05:25:00;;;;;;;0.73;0.73;;;3.00;99.90;;;;;;4949900;28;20046;-85
2021/12/05 05:27:40;;;;;;;0.90;0.90;;;3.00;99.90;;;;;;4974205;28;20047;-85
2021/12/05 05:30:23;;;;;;;1.08;1.08;;;3.00;99.90;;;;;;4977771;28;20111;-85
2021/12/05 05:44:31;;;;;;;1.25;1.13;;;2.90;99.90;;;;;;4971663;28;20055;-85
2021/12/05 05:49:34;;;;;;;4.35;1.35;;;2.90;99.90;;;;;;4967075;28;20054;-85
2021/12/05 05:51:55;;;;;;;0.85;0.85;;;2.90;99.90;;;;;;4960318;28;20354;-85
2021/12/05 05:54:21;;;;;;;0.80;0.80;;;3.00;99.90;;;;;;4973144;28;20054;-85
2021/12/05 05:56:47;;;;;;;0.70;0.70;;;2.90;99.90;;;;;;4971117;28;20094;-85
2021/12/05 06:04:27;;;;;;;20.40;1.88;;;2.90;99.90;;;;;;4946262;28;20106;-85
2021/12/05 06:06:52;;;;;;;0.80;0.80;;;2.90;99.90;;;;;;4965378;28;20085;-85
2021/12/05 06:09:18;;;;;;;1.02;1.02;;;2.80;99.90;;;;;;4971547;28;20039;-85
2021/12/05 06:11:44;;;;;;;0.80;0.80;;;2.80;99.90;;;;;;4963616;28;20078;-84
2021/12/05 06:14:10;;;;;;;0.80;0.80;;;2.80;99.90;;;;;;4958220;28;20113;-85
2021/12/05 06:16:36;;;;;;;0.70;0.70;;;2.80;99.90;;;;;;4970230;28;20050;-85
2021/12/05 06:19:02;;;;;;;0.60;0.60;;;2.80;99.90;;;;;;4969185;28;20035;-84
2021/12/05 06:21:27;;;;;;;0.70;0.70;;;2.80;99.90;;;;;;4975935;28;20077;-84
2021/12/05 06:23:53;;;;;;;0.77;0.77;;;2.80;99.90;;;;;;4976886;28;20046;-85
2021/12/05 06:26:22;;;;;;;0.80;0.80;;;;;;;;;;4960829;28;20046;-85
2021/12/05 06:29:04;;;;;;;0.80;0.80;;;2.70;99.90;;;;;;4977444;28;20327;-85
2021/12/05 06:31:56;;;;;;;0.70;0.70;;;2.80;99.90;;;;;;4969392;28;20051;-83
2021/12/05 06:40:14;;;;;;;0.80;0.80;;;2.80;99.90;;;;;;4975051;28;20086;-85
2021/12/05 06:42:54;;;;;;;0.88;0.88;;;2.80;99.90;;;;;;4974317;28;20043;-88
2021/12/05 06:48:05;;;;;;;0.77;0.77;;;2.80;99.90;;;;;;4970276;28;20122;-87
2021/12/05 06:50:30;;;;;;;0.80;0.80;;;2.80;99.90;;;;;;4959885;28;20828;-85
2021/12/05 06:52:56;;;;;;;0.70;0.70;;;2.80;99.90;;;;;;4974624;28;20053;-85
2021/12/05 06:55:21;;;;;;;1.15;1.05;;;2.80;99.90;;;;;;4961349;28;20034;-85
2021/12/05 06:57:47;;;;;;;0.70;0.70;;;2.80;99.90;;;;;;4980895;28;20042;-86
2021/12/05 07:00:18;;;;;;;0.73;0.73;;;2.80;99.90;;;;;;4978212;28;20102;-86
2021/12/05 07:02:44;;;;;;;0.80;0.80;;;3.00;99.90;;;;;;4958221;28;20043;-86
2021/12/05 07:05:37;;;;;;;0.70;0.70;;;2.80;99.90;;;;;;4972545;28;20472;-86
2021/12/05 07:08:04;;;;;;;0.70;0.70;;;2.90;99.90;;;;;;4961025;28;20039;-86
2021/12/05 07:10:35;;;;;;;0.75;0.75;;;2.90;99.90;;;;;;4958607;28;20050;-86
2021/12/05 07:13:42;;;;;;;1.00;1.00;;;2.90;99.90;;;;;;4959524;28;20053;-86
2021/12/05 07:26:17;;;;;;;0.73;0.73;;;2.90;99.90;;;;;;4975215;28;20043;-87
2021/12/05 07:40:21;;;;;;;1.00;1.00;;;2.80;99.90;;;;;;4958313;28;20046;-87
2021/12/05 07:42:30;;;;;;;0.80;0.80;;;2.90;99.90;;;;;;4994309;28;20114;-86
2021/12/05 07:44:59;;;;;;;0.70;0.70;;;2.90;99.90;;;;;;4962883;28;20034;-84
2021/12/05 07:47:30;;;;;;;0.70;0.70;;;2.90;99.90;;;;;;4964331;28;20050;-86
2021/12/05 07:49:57;;;;;;;0.70;0.70;;;2.90;99.90;;;;;;4971458;28;20050;-86
2021/12/05 07:52:26;;;;;;;0.65;0.65;;;2.90;99.90;;;;;;4959895;28;20039;-85
2021/12/05 07:54:59;;;;;;;0.80;0.80;;;2.90;99.90;;;;;;4976241;28;20411;-85
2021/12/05 07:57:38;;;;;;;;;;;3.00;99.90;;;;;;4963743;28;20039;-87
2021/12/05 08:00:20;;;;;;;0.90;0.90;;;3.00;99.90;;;;;;4963438;28;19926;-87
2021/12/05 08:16:29;;;;;;;0.80;0.80;;;3.10;99.90;;;;;;4975973;28;20050;-88
2021/12/05 08:18:56;;;;;;;0.73;0.73;;;3.10;99.90;;;;;;4965340;28;20034;-88
2021/12/05 08:21:21;;;;;;;1.00;1.00;;;3.10;99.90;;;;;;4963213;28;20058;-88
2021/12/05 08:23:49;;;;;;;0.77;0.77;;;3.10;99.90;;;;;;4972188;28;20149;-88
2021/12/05 08:26:22;;;;;;;0.60;0.60;;;3.10;99.90;;;;;;4960548;28;20110;-87
2021/12/05 08:29:03;;;;;;;0.70;0.70;;;3.10;99.90;;;;;;4960421;28;20066;-88
2021/12/05 08:42:33;;;;;;;0.60;0.60;;;3.20;99.90;;;;;;4971305;28;20069;-88
2021/12/05 09:20:57;;;;;;;1.10;1.00;;;3.60;99.90;;;;;;4978272;28;20084;-87
2021/12/05 09:23:55;;;;;;;0.80;0.80;;;3.60;99.90;;;;;;4970088;28;20111;-85
2021/12/05 09:29:18;;;;;;;1.00;0.93;;;3.60;99.90;;;;;;4975257;28;20047;-87
2021/12/05 10:07:19;;;;;;;2.03;1.88;;;3.50;99.90;;;;;;4974762;28;20046;-87
2021/12/05 10:15:39;;;;;;;0.80;0.80;;;3.50;99.90;;;;;;4977689;28;20156;-88
2021/12/05 10:38:00;;;;;;;0.80;0.80;;;3.70;99.90;;;;;;4974758;28;20554;-88
2021/12/05 10:40:38;;;;;;;0.77;0.77;;;3.70;99.90;;;;;;4958741;28;20944;-88
2021/12/05 10:43:14;;;;;;;0.70;0.70;;;3.70;99.90;;;;;;4963703;28;20052;-88
2021/12/05 10:45:44;;;;;;;2.80;1.52;;;3.70;99.90;;;;;;4960662;28;20080;-88
2021/12/05 10:48:19;;;;;;;1.13;0.98;;;3.80;99.90;;;;;;4970608;28;20046;-87
2021/12/05 10:50:53;;;;;;;0.70;0.70;;;3.70;99.90;;;;;;4958601;28;20106;-88
2021/12/05 10:53:24;;;;;;;1.90;1.77;;;3.70;99.90;;;;;;4965248;28;20082;-85
2021/12/05 10:56:04;;;;;;;0.70;0.70;;;3.70;99.90;;;;;;4961538;28;20105;-88
2021/12/05 10:58:37;;;;;;;1.27;1.17;;;3.70;99.90;;;;;;4963341;28;20065;-88
2021/12/05 11:01:07;;;;;;;1.00;1.00;;;3.80;99.90;;;;;;4963498;28;20023;-86
2021/12/05 11:03:33;;;;;;;1.45;1.35;;;3.70;99.90;;;;;;4970367;28;20110;-87
2021/12/05 11:05:59;;;;;;;0.80;0.80;;;3.80;99.90;;;;;;4974379;28;20034;-88
2021/12/05 11:08:35;;;;;;;1.35;1.25;;;3.80;99.90;;;;;;4972647;28;20039;-88
2021/12/05 11:11:09;;;;;;;0.90;0.90;;;3.80;99.90;;;;;;4973571;28;20023;-87
2021/12/05 11:13:37;;;;;;;0.95;0.95;;;3.80;99.90;;;;;;4972301;28;20062;-88
2021/12/05 11:16:27;;;;;;;0.70;0.70;;;3.80;99.90;;;;;;4979521;28;20051;-83
2021/12/05 11:18:53;;;;;;;0.82;0.82;;;3.80;99.90;;;;;;4980242;28;20039;-83
2021/12/05 11:21:34;;;;;;;0.70;0.70;;;3.90;99.90;;;;;;4974816;28;20047;-85
2021/12/05 11:24:10;;;;;;;1.02;1.02;;;3.90;99.90;;;;;;4958636;28;20062;-84
2021/12/05 11:26:39;;;;;;;1.17;1.08;;;3.90;99.90;;;;;;4971104;28;20548;-85
2021/12/05 11:29:05;;;;;;;0.73;0.73;;;3.90;99.90;;;;;;4980576;28;20035;-84
2021/12/05 11:31:32;;;;;;;1.00;1.00;;;3.90;99.90;;;;;;4958061;28;20054;-84
2021/12/05 11:33:58;;;;;;;0.73;0.73;;;3.90;99.90;;;;;;4977117;28;20051;-84
2021/12/05 11:36:35;;;;;;;0.88;0.88;;;3.90;99.90;;;;;;4957852;28;20043;-84
2021/12/05 11:39:20;;;;;;;0.70;0.70;;;4.00;99.90;;;;;;4961219;28;20061;-83
2021/12/05 11:41:45;;;;;;;0.73;0.73;;;4.00;99.90;;;;;;4979058;28;20106;-84
2021/12/05 11:44:17;;;;;;;1.35;1.25;;;4.00;99.90;;;;;;4960307;28;20082;-83
2021/12/05 11:46:44;;;;;;;0.93;0.93;;;4.00;99.90;;;;;;4963533;28;20050;-83
2021/12/05 11:49:29;;;;;;;0.80;0.80;;;4.00;99.90;;;;;;4975711;28;20055;-84
2021/12/05 11:51:56;;;;;;;0.70;0.70;;;4.10;99.90;;;;;;4965740;28;20059;-84
2021/12/05 11:54:41;;;;;;;0.70;0.70;;;4.10;99.90;;;;;;4962675;28;20098;-87
2021/12/05 11:57:14;;;;;;;1.10;1.10;;;4.10;99.90;;;;;;4956358;28;20043;-84
2021/12/05 12:00:00;;;;;;;0.90;0.90;;;4.10;99.90;;;;;;4972272;28;20128;-84
2021/12/05 12:02:40;;;;;;;0.70;0.70;;;4.20;99.90;;;;;;4968416;28;20539;-83
2021/12/05 12:05:13;;;;;;;1.00;1.00;;;4.30;99.90;;;;;;4957475;28;20086;-83
2021/12/05 12:07:44;;;;;;;8.77;1.23;;;4.30;99.90;;;;;;4974332;28;20611;-84
2021/12/05 12:10:17;;;;;;;2.05;1.02;;;4.30;99.90;;;;;;4972515;28;20071;-84
2021/12/05 12:12:46;;;;;;;0.80;0.80;;;4.40;99.90;;;;;;4976876;28;20046;-84
2021/12/05 12:15:14;;;;;;;1.00;1.00;;;4.40;99.90;;;;;;4960555;28;20043;-83
2021/12/05 12:17:41;;;;;;;1.52;1.42;;;4.50;99.90;;;;;;4977603;28;20165;-83
2021/12/05 12:20:11;;;;;;;3.03;2.65;;;4.60;99.90;;;;;;4961152;28;20042;-83
2021/12/05 12:22:39;;;;;;;1.13;1.00;;;4.60;99.90;;;;;;4953167;28;20103;-83
2021/12/05 12:25:15;;;;;;;1.20;1.17;;;4.70;99.90;;;;;;4959491;28;20043;-82
2021/12/05 12:27:43;;;;;;;0.80;0.80;;;4.70;99.90;;;;;;4969532;28;20035;-82
2021/12/05 12:30:10;;;;;;;1.13;1.10;;;4.80;99.90;;;;;;4956021;28;20058;-82
2021/12/05 12:32:42;;;;;;;0.70;0.70;;;4.80;99.90;;;;;;4974218;28;20039;-83
2021/12/05 12:35:17;;;;;;;0.98;0.98;;;4.80;99.90;;;;;;4950410;28;20555;-83
2021/12/05 12:37:59;;;;;;;0.80;0.80;;;4.90;99.90;;;;;;4962370;28;20526;-83
2021/12/05 12:40:43;;;;;;;0.85;0.85;;;4.90;99.90;;;;;;4951080;29;20061;-82
2021/12/05 12:43:38;;;;;;;1.13;0.90;;;4.90;99.90;;;;;;4972958;28;20061;-83
2021/12/05 12:46:17;;;;;;;;;;;4.90;99.90;;;;;;4972597;28;20451;-83
2021/12/05 12:48:44;;;;;;;1.30;0.95;;;4.90;99.90;;;;;;4979087;28;19922;-82
2021/12/05 12:51:33;;;;;;;0.80;0.80;;;5.00;99.90;;;;;;4955911;29;20050;-83
2021/12/05 12:54:04;;;;;;;0.80;0.80;;;5.00;99.90;;;;;;4976174;28;20038;-82
2021/12/05 12:56:30;;;;;;;0.70;0.70;;;5.00;99.90;;;;;;4970079;28;20059;-83
2021/12/05 12:59:01;;;;;;;0.85;0.85;;;5.00;99.90;;;;;;4973342;28;20058;-84
2021/12/05 13:01:51;;;;;;;1.40;1.30;;;5.00;99.90;;;;;;4969812;28;20050;-85
2021/12/05 13:10:09;;;;;;;0.88;0.88;;;5.00;99.90;;;;;;4978210;28;20201;-84
2021/12/05 13:12:44;;;;;;;1.50;1.35;;;5.00;99.90;;;;;;4975149;28;20053;-84
2021/12/05 13:15:17;;;;;;;0.80;0.80;;;5.10;99.90;;;;;;4979460;28;20149;-84
2021/12/05 13:17:56;;;;;;;1.15;1.02;;;5.10;99.90;;;;;;4970197;28;20039;-85
2021/12/05 13:20:28;;;;;;;2.30;1.00;;;5.10;99.90;;;;;;4976026;28;20058;-84
2021/12/05 13:23:31;;;;;;;1.30;0.80;;;5.10;99.90;;;;;;4978581;28;20110;-84
2021/12/05 13:26:15;;;;;;;0.98;0.98;;;5.20;99.90;;;;;;4980351;28;20077;-84
2021/12/05 13:29:10;;;;;;;0.70;0.70;;;5.10;99.90;;;;;;4963815;28;20047;-84
2021/12/05 13:32:05;;;;;;;0.90;0.90;;;5.10;99.90;;;;;;4955915;28;20039;-84
2021/12/05 13:34:59;;;;;;;4.63;2.60;;;5.10;99.90;;;;;;4980187;28;20059;-84
2021/12/05 13:37:24;;;;;;;2.92;1.92;;;5.10;99.90;;;;;;4969356;28;20069;-84
2021/12/05 13:40:15;;;;;;;0.80;0.80;;;5.10;99.90;;;;;;4959947;28;20126;-85
2021/12/05 13:42:50;;;;;;;0.70;0.70;;;5.10;99.90;;;;;;4975680;28;20106;-84
2021/12/05 13:45:27;;;;;;;2.33;1.30;;;5.10;99.90;;;;;;4975624;28;20038;-85
2021/12/05 13:47:52;;;;;;;0.70;0.70;;;5.10;99.90;;;;;;4979616;28;20626;-84
2021/12/05 13:50:18;;;;;;;1.42;1.33;;;5.00;99.90;;;;;;4979096;28;20081;-85
2021/12/05 13:53:13;;;;;;;0.80;0.80;;;5.00;99.90;;;;;;4975284;28;20070;-84
2021/12/05 13:55:42;;;;;;;1.00;1.00;;;5.00;99.90;;;;;;4970346;28;20031;-85
2021/12/05 13:58:32;;;;;;;0.68;0.68;;;5.00;99.90;;;;;;4964364;28;20050;-84
2021/12/05 14:01:35;;;;;;;0.80;0.80;;;5.00;99.90;;;;;;4962011;28;20043;-85
2021/12/05 14:04:08;;;;;;;0.80;0.80;;;4.90;99.90;;;;;;4960620;28;20046;-84
2021/12/05 14:06:57;;;;;;;0.70;0.70;;;4.90;99.90;;;;;;4961987;28;20047;-84
2021/12/05 14:09:47;;;;;;;0.70;0.70;;;4.90;99.90;;;;;;4975449;28;20071;-84
2021/12/05 14:12:24;;;;;;;1.77;1.67;;;4.90;99.90;;;;;;4966271;28;20058;-85
2021/12/05 14:15:02;;;;;;;0.60;0.60;;;4.90;99.90;;;;;;4966802;28;20043;-85
2021/12/05 14:17:27;;;;;;;0.65;0.65;;;4.90;99.90;;;;;;4963074;28;20047;-85
2021/12/05 14:19:57;;;;;;;0.60;0.60;;;4.90;99.90;;;;;;4971341;28;20046;-86
2021/12/05 14:22:25;;;;;;;0.70;0.70;;;4.90;99.90;;;;;;4962957;28;20093;-85
2021/12/05 14:24:55;;;;;;;0.70;0.70;;;4.80;99.90;;;;;;4962582;28;20520;-85
2021/12/05 14:27:30;;;;;;;0.70;0.70;;;4.80;99.90;;;;;;4963908;28;20054;-84
2021/12/05 14:29:57;;;;;;;0.70;0.70;;;4.80;99.90;;;;;;4975737;28;20518;-86
2021/12/05 14:32:25;;;;;;;0.90;0.90;;;4.80;99.90;;;;;;4965332;28;20364;-87
2021/12/05 14:34:53;;;;;;;0.80;0.80;;;4.80;99.90;;;;;;4979195;28;20590;-85
2021/12/05 14:37:20;;;;;;;0.70;0.70;;;4.80;99.90;;;;;;4964427;28;20046;-87
2021/12/05 14:39:52;;;;;;;1.85;1.73;;;4.80;99.90;;;;;;4966028;28;20093;-86
2021/12/05 14:42:25;;;;;;;0.70;0.70;;;4.70;99.90;;;;;;4975384;28;20043;-86
2021/12/05 14:44:54;;;;;;;0.80;0.80;;;4.70;99.90;;;;;;4956225;29;20050;-85
2021/12/05 14:47:23;;;;;;;0.70;0.70;;;4.70;99.90;;;;;;4958150;28;20143;-86
2021/12/05 14:49:55;;;;;;;0.75;0.75;;;4.70;99.90;;;;;;4964630;28;20041;-85
2021/12/05 14:52:29;;;;;;;0.80;0.80;;;4.70;99.90;;;;;;4976089;28;20372;-85
2021/12/05 14:54:56;;;;;;;0.90;0.90;;;4.70;99.90;;;;;;4965826;28;20054;-86
2021/12/05 14:57:33;;;;;;;0.90;0.90;;;4.70;99.90;;;;;;4978329;28;20074;-87
2021/12/05 15:00:09;;;;;;;0.70;0.70;;;4.70;99.90;;;;;;4974829;28;20062;-87
2021/12/05 15:02:35;;;;;;;0.80;0.80;;;4.60;99.90;;;;;;4967185;28;20053;-86
2021/12/05 15:05:01;;;;;;;0.70;0.70;;;4.60;99.90;;;;;;4952606;29;20480;-86
2021/12/05 15:07:27;;;;;;;2.05;1.00;;;4.60;99.90;;;;;;4960450;28;20043;-85
2021/12/05 15:09:56;;;;;;;0.85;0.85;;;4.60;99.90;;;;;;4966028;28;20039;-85
2021/12/05 15:12:28;;;;;;;0.80;0.80;;;4.60;99.90;;;;;;4959921;28;20129;-85
2021/12/05 15:14:58;;;;;;;1.25;1.15;;;4.60;99.90;;;;;;4963966;28;20043;-85
2021/12/05 15:17:26;;;;;;;0.77;0.77;;;4.60;99.90;;;;;;4975908;28;20115;-85
2021/12/05 15:19:55;;;;;;;0.85;0.85;;;4.60;99.90;;;;;;4964317;28;20042;-87
2021/12/05 15:22:21;;;;;;;0.98;0.98;;;4.60;99.90;;;;;;4958134;28;20106;-88
2021/12/05 15:24:56;;;;;;;0.80;0.80;;;4.50;99.90;;;;;;4969473;28;20030;-87
2021/12/05 15:27:24;;;;;;;1.10;1.00;;;4.50;99.90;;;;;;4975572;28;20047;-85
2021/12/05 15:29:54;;;;;;;1.50;1.15;;;4.50;99.90;;;;;;4977338;28;20091;-86
2021/12/05 15:32:26;;;;;;;0.90;0.90;;;4.50;99.90;;;;;;4973403;28;20138;-87
2021/12/05 15:34:57;;;;;;;1.45;1.35;;;4.50;99.90;;;;;;4978616;28;20161;-87
2021/12/05 15:37:24;;;;;;;0.90;0.90;;;4.40;99.90;;;;;;4953990;28;20121;-87
2021/12/05 15:39:51;;;;;;;2.22;1.17;;;4.40;99.90;;;;;;4961581;28;20047;-88
2021/12/05 15:42:30;;;;;;;0.85;0.85;;;4.40;99.90;;;;;;4979270;28;20139;-87
2021/12/05 15:44:58;;;;;;;1.20;1.10;;;4.40;99.90;;;;;;4966545;28;20047;-88
2021/12/05 15:47:27;;;;;;;0.90;0.90;;;4.40;99.90;;;;;;4960228;28;20035;-87
2021/12/05 15:50:06;;;;;;;3.35;1.50;;;4.40;99.90;;;;;;4971614;28;20035;-88
2021/12/05 15:52:53;;;;;;;3.63;3.38;;;4.40;99.90;;;;;;4956960;28;20117;-87
2021/12/05 15:55:31;;;;;;;0.95;0.95;;;4.30;99.90;;;;;;4957506;28;20377;-86
2021/12/05 15:58:11;;;;;;;0.90;0.90;;;4.30;99.90;;;;;;4969143;28;20067;-85
2021/12/05 16:00:50;;;;;;;0.60;0.60;;;4.30;99.90;;;;;;4972801;28;20043;-86
2021/12/05 16:03:20;;;;;;;0.80;0.80;;;4.30;99.90;;;;;;4966872;28;20050;-87
2021/12/05 16:05:53;;;;;;;1.15;1.00;;;4.30;99.90;;;;;;4963081;28;20042;-86
2021/12/05 16:08:18;;;;;;;2.65;1.75;;;4.30;99.90;;;;;;4955224;29;20468;-86
2021/12/05 16:10:47;;;;;;;2.03;1.38;;;4.30;99.90;;;;;;4958204;28;20119;-85
2021/12/05 16:13:20;;;;;;;1.23;1.13;;;4.20;99.90;;;;;;4959425;28;20042;-86
2021/12/05 16:15:48;;;;;;;0.82;0.82;;;4.20;99.90;;;;;;4973747;28;20421;-85
2021/12/05 16:18:14;;;;;;;1.58;1.27;;;4.20;99.90;;;;;;4977672;28;20051;-85
2021/12/05 16:20:54;;;;;;;0.95;0.95;;;4.20;99.90;;;;;;4953247;28;20070;-86
2021/12/05 16:23:28;;;;;;;0.85;0.85;;;4.20;99.90;;;;;;4978703;28;20051;-85
2021/12/05 16:26:11;;;;;;;4.43;1.23;;;4.20;99.90;;;;;;4978453;28;20047;-86
2021/12/05 16:28:43;;;;;;;0.98;0.98;;;4.20;99.90;;;;;;4979685;28;20121;-87
2021/12/05 16:31:20;;;;;;;1.33;1.23;;;4.20;99.90;;;;;;4960839;28;20047;-87
2021/12/05 16:33:53;;;;;;;1.58;1.48;;;4.20;99.90;;;;;;4962614;28;20055;-87
2021/12/05 16:36:19;;;;;;;0.90;0.90;;;4.20;99.90;;;;;;4962044;28;20042;-86
2021/12/05 16:38:50;;;;;;;1.02;1.02;;;4.20;99.90;;;;;;4979151;28;20080;-88
2021/12/05 16:41:29;;;;;;;2.25;2.05;;;4.20;99.90;;;;;;4980193;28;20042;-87
2021/12/05 16:44:03;;;;;;;2.15;1.70;;;4.20;99.90;;;;;;4978738;28;20059;-87
2021/12/05 16:46:38;;;;;;;1.77;1.63;;;4.20;99.90;;;;;;4977907;28;20047;-88
2021/12/05 16:49:08;;;;;;;1.02;1.02;;;4.20;99.90;;;;;;4972536;28;20125;-84
2021/12/05 16:51:50;;;;;;;0.70;0.70;;;4.20;99.90;;;;;;4959619;28;20112;-86
2021/12/05 16:54:22;;;;;;;1.10;1.05;;;4.20;99.90;;;;;;4957120;28;20039;-86
2021/12/05 16:56:56;;;;;;;1.05;1.02;;;4.20;99.90;;;;;;4975998;28;20058;-85
2021/12/05 16:59:31;;;;;;;1.70;1.60;;;4.20;99.90;;;;;;4980633;28;20046;-85
2021/12/05 17:02:27;;;;;;;2.55;2.08;;;4.20;99.90;;;;;;4974105;28;20043;-85
2021/12/05 17:05:33;;;;;;;1.27;1.20;;;4.20;99.90;;;;;;4959819;28;20040;-85
2021/12/05 17:08:28;;;;;;;2.45;1.67;;;4.20;99.90;;;;;;4961122;28;20046;-85
2021/12/05 17:11:09;;;;;;;1.67;1.27;;;4.20;99.90;;;;;;4949438;28;20055;-84
2021/12/05 17:13:34;;;;;;;1.55;1.45;;;4.20;99.90;;;;;;4977623;28;20047;-85
2021/12/05 17:16:05;;;;;;;2.67;1.50;;;4.20;99.90;;;;;;4977671;28;20665;-84
2021/12/05 17:18:34;;;;;;;2.28;2.08;;;4.20;99.90;;;;;;4962945;28;20124;-85
2021/12/05 17:21:21;;;;;;;0.90;0.90;;;4.20;99.90;;;;;;4961380;28;20046;-85
2021/12/05 17:23:54;;;;;;;11.38;1.48;;;4.20;99.90;;;;;;4959549;28;20039;-86
2021/12/05 17:26:31;;;;;;;2.10;1.85;;;4.10;99.90;;;;;;4949409;28;20078;-86
2021/12/05 17:29:08;;;;;;;3.22;1.13;;;4.00;99.90;;;;;;4960140;28;20038;-87
2021/12/05 17:31:38;;;;;;;1.38;1.27;;;4.00;99.90;;;;;;4975707;28;20047;-86
2021/12/05 17:34:25;;;;;;;1.10;1.00;;;4.00;99.90;;;;;;4961028;28;20504;-85
2021/12/05 17:36:54;;;;;;;1.60;1.23;;;4.00;99.90;;;;;;4974715;28;20054;-84
2021/12/05 17:39:25;;;;;;;1.58;1.48;;;3.90;99.90;;;;;;4962865;28;20039;-86
2021/12/05 17:41:55;;;;;;;0.90;0.90;;;3.80;99.90;;;;;;4974231;28;20042;-85
2021/12/05 17:44:21;;;;;;;1.40;1.30;;;3.80;99.90;;;;;;4962278;28;20046;-85
2021/12/05 17:46:50;;;;;;;1.38;1.27;;;3.80;99.90;;;;;;4959776;28;20115;-85
2021/12/05 17:49:18;;;;;;;2.03;1.88;;;3.70;99.90;;;;;;4973473;28;20077;-86
2021/12/05 17:51:45;;;;;;;1.35;1.25;;;3.70;99.90;;;;;;4978160;28;20030;-84
2021/12/05 17:54:30;;;;;;;1.52;1.42;;;3.70;99.90;;;;;;4978747;28;20047;-85
2021/12/05 17:57:03;;;;;;;1.58;1.52;;;3.60;99.90;;;;;;4961445;28;20035;-85
2021/12/05 17:59:55;;;;;;;1.45;1.35;;;3.60;99.90;;;;;;4975521;28;20042;-87
2021/12/05 18:02:43;;;;;;;2.28;1.70;;;3.50;99.90;;;;;;4962743;28;20053;-86
2021/12/05 18:05:19;;;;;;;1.00;1.00;;;3.40;99.90;;;;;;4959284;28;20363;-87
2021/12/05 18:07:47;;;;;;;0.90;0.90;;;3.30;99.90;;;;;;4955564;28;20063;-88
2021/12/05 18:10:15;;;;;;;2.80;1.45;;;3.20;99.90;;;;;;4957260;28;20123;-87
2021/12/05 18:12:42;;;;;;;1.00;0.93;;;3.20;99.90;;;;;;4967225;28;20051;-88
2021/12/05 18:15:18;;;;;;;2.00;1.60;;;3.10;99.90;;;;;;4964364;28;20073;-88
2021/12/05 18:17:44;;;;;;;0.95;0.95;;;3.10;99.90;;;;;;4968191;28;20046;-89
2021/12/05 18:20:14;;;;;;;2.38;1.33;;;3.10;99.90;;;;;;4970460;28;20070;-90
2021/12/05 18:22:43;;;;;;;1.25;1.20;;;3.10;99.90;;;;;;4964685;28;20047;-90